Asturias

Airport
ICAO code: 
LEAS
Summary
ICAO Region: 
EUR
Territory: 
Location: 
Asturias, Spain,
Coordinates: 
Aerial View: 
43° 33' 34.417" N, 6° 1' 51.663" W
Airport BS: 
Bird Strike
Airport WX: 
Fog
Metar
Observation
LEAS 080530Z 26017G28KT 6000 -RA FEW030CB SCT045 BKN070 07/02 Q1009 TEMPO 3000 SHRA
Station
Asturias / Aviles
Date/Time
2021-12-08 05:30:00
Wind direction
260°
Wind speed
17 kts
Lowest cloud amount
few clouds
Temperature
7°C
Dew point
2°C
Humidity
70%
QNH
1009 hPa
Weather condition
n/a

Description

International airport serving Asturias in northern spain.

Climatology

Temperate Marine climate/Oceanic climate (Köppen climate classification Cfb). Moderately cool summer and comparatively warm winter with a temperature range of only 14°C. Prevailing south-westerly winds from the Atlantic Ocean.

Runways

Designator Length Width Surface Rops
11/29 2200 45 ASP Yes/Yes
Airport map: 
Aerial View: 

SKYbrary Partners:

Safety knowledge contributed by: